createdAt,value
2017-05-14T00:00:18.767Z,80.62
2017-05-14T00:01:32.806Z,80.62
2017-05-14T00:02:47.834Z,80.62
2017-05-14T00:04:03.400Z,81.13
2017-05-14T00:05:18.777Z,81.33
2017-05-14T00:06:34.114Z,81.43
2017-05-14T00:07:49.479Z,81.29
2017-05-14T00:09:03.748Z,81.29
2017-05-14T00:10:17.690Z,81.2
2017-05-14T00:11:31.747Z,81.2
2017-05-14T00:12:44.472Z,81.86
2017-05-14T00:14:00.072Z,81.77
2017-05-14T00:15:15.437Z,81.67
2017-05-14T00:16:30.811Z,81.67
2017-05-14T00:17:44.881Z,81.67
2017-05-14T00:19:00.491Z,81.67
2017-05-14T00:20:14.653Z,81.86
2017-05-14T00:21:30.023Z,81.77
2017-05-14T00:22:45.366Z,82.24
2017-05-14T00:23:58.372Z,82.01
2017-05-14T00:25:13.748Z,82.24
2017-05-14T00:26:29.186Z,82.3
2017-05-14T00:27:44.609Z,82.59
2017-05-14T00:28:58.971Z,82.01
2017-05-14T00:30:14.398Z,82.49
2017-05-14T00:31:29.727Z,82.01
2017-05-14T00:32:44.719Z,82.11
2017-05-14T00:34:00.300Z,82.11
2017-05-14T00:35:15.629Z,82.3
2017-05-14T00:36:29.575Z,82.3
2017-05-14T00:37:44.949Z,82.2
2017-05-14T00:39:00.508Z,82.11
2017-05-14T00:40:16.100Z,81.92
2017-05-14T00:41:28.722Z,82.01
2017-05-14T00:42:42.824Z,82.4
2017-05-14T00:43:58.328Z,83.06
2017-05-14T00:45:13.858Z,83.06
2017-05-14T00:46:29.224Z,83.06
2017-05-14T00:47:42.132Z,82.49
2017-05-14T00:48:56.243Z,82.78
2017-05-14T00:50:11.941Z,82.68
2017-05-14T00:51:25.934Z,82.78
2017-05-14T00:52:41.334Z,82.87
2017-05-14T00:53:56.671Z,82.87
2017-05-14T00:55:10.860Z,82.97
2017-05-14T00:56:26.244Z,83.06
2017-05-14T00:57:41.622Z,82.97
2017-05-14T00:58:55.663Z,82.97
2017-05-14T01:00:11.228Z,83.06
2017-05-14T01:01:24.028Z,82.87
2017-05-14T01:02:39.390Z,83.16
2017-05-14T01:03:54.751Z,82.87
2017-05-14T01:05:09.002Z,82.97
2017-05-14T01:06:24.502Z,83.06
2017-05-14T01:07:38.177Z,83.16
2017-05-14T01:08:50.931Z,82.97
2017-05-14T01:10:06.525Z,83.45
2017-05-14T01:11:21.881Z,83.83
2017-05-14T01:12:37.256Z,83.93
2017-05-14T01:13:51.324Z,83.26
2017-05-14T01:15:05.420Z,83.93
2017-05-14T01:16:19.593Z,83.73
2017-05-14T01:17:33.783Z,83.93
2017-05-14T01:18:49.129Z,83.54
2017-05-14T01:20:03.175Z,83.93
2017-05-14T01:21:18.804Z,83.69
2017-05-14T01:22:32.879Z,83.93
2017-05-14T01:23:48.241Z,83.54
2017-05-14T01:25:03.566Z,83.79
2017-05-14T01:26:19.525Z,83.45
2017-05-14T01:27:35.083Z,83.16
2017-05-14T01:28:49.155Z,83.4
2017-05-14T01:30:01.803Z,82.74
2017-05-14T01:31:17.386Z,83.22
2017-05-14T01:32:32.726Z,82.83
2017-05-14T01:33:48.045Z,82.83
2017-05-14T01:35:03.452Z,83.6
2017-05-14T01:36:17.717Z,83.12
2017-05-14T01:37:31.814Z,83.22
2017-05-14T01:38:47.134Z,83.22
2017-05-14T01:40:02.716Z,83.12
2017-05-14T01:41:17.021Z,83.12
2017-05-14T01:42:32.343Z,82.74
2017-05-14T01:43:46.117Z,82.74
2017-05-14T01:45:01.498Z,82.93
2017-05-14T01:46:17.027Z,83.79
2017-05-14T01:47:32.404Z,83.03
2017-05-14T01:48:47.778Z,83.75
2017-05-14T01:50:01.598Z,83.89
2017-05-14T01:51:15.785Z,82.74
2017-05-14T01:52:28.504Z,83.08
2017-05-14T01:53:43.831Z,83.75
2017-05-14T01:54:57.877Z,83.75
2017-05-14T01:56:13.206Z,83.37
2017-05-14T01:57:27.636Z,83.94
2017-05-14T01:58:43.043Z,83.65
2017-05-14T01:59:58.380Z,83.94
2017-05-14T02:01:13.745Z,84.52
2017-05-14T02:02:29.275Z,84.99
2017-05-14T02:03:43.318Z,84.23
2017-05-14T02:04:58.646Z,84.42
2017-05-14T02:06:12.703Z,84.32
2017-05-14T02:07:28.265Z,84.61
2017-05-14T02:08:42.172Z,84.03
2017-05-14T02:09:57.646Z,84.99
2017-05-14T02:11:11.715Z,84.8
2017-05-14T02:12:27.296Z,84.89
2017-05-14T02:13:42.632Z,85.09
2017-05-14T02:14:58.240Z,85.09
2017-05-14T02:16:13.656Z,84.8
2017-05-14T02:17:29.184Z,85.09
2017-05-14T02:18:44.154Z,84.8
2017-05-14T02:19:59.488Z,85.18
2017-05-14T02:21:14.849Z,85.09
2017-05-14T02:22:30.542Z,84.99
2017-05-14T02:23:45.877Z,84.89
2017-05-14T02:25:01.260Z,85.18
2017-05-14T02:26:13.982Z,85.13
2017-05-14T02:27:29.548Z,84.84
2017-05-14T02:28:44.889Z,84.75
2017-05-14T02:29:57.521Z,84.99
2017-05-14T02:31:11.569Z,84.55
2017-05-14T02:32:23.036Z,84.55
2017-05-14T02:33:37.309Z,84.75
2017-05-14T02:34:52.865Z,84.36
2017-05-14T02:36:08.207Z,84.94
2017-05-14T02:37:23.550Z,84.17
2017-05-14T02:38:39.176Z,84.36
2017-05-14T02:39:54.733Z,84.27
2017-05-14T02:41:08.806Z,84.17
2017-05-14T02:42:21.564Z,84.55
2017-05-14T02:43:37.102Z,84.17
2017-05-14T02:44:51.147Z,84.27
2017-05-14T02:46:06.720Z,84.46
2017-05-14T02:47:22.056Z,83.79
2017-05-14T02:48:37.586Z,83.98
2017-05-14T02:49:51.761Z,83.98
2017-05-14T02:51:05.882Z,83.75
2017-05-14T02:52:21.261Z,83.65
2017-05-14T02:53:35.755Z,83.46
2017-05-14T02:54:49.806Z,83.84
2017-05-14T02:56:05.190Z,83.65
2017-05-14T02:57:17.592Z,83.65
2017-05-14T02:58:33.135Z,83.56
2017-05-14T02:59:47.224Z,84.03
2017-05-14T03:01:02.583Z,84.23
2017-05-14T03:02:17.973Z,84.52
2017-05-14T03:03:33.548Z,85.18
2017-05-14T03:04:48.876Z,84.32
2017-05-14T03:06:02.938Z,84.52
2017-05-14T03:07:18.262Z,84.52
2017-05-14T03:08:33.801Z,84.32
2017-05-14T03:09:49.165Z,84.52
2017-05-14T03:11:04.545Z,84.23
2017-05-14T03:12:19.871Z,84.23
2017-05-14T03:13:35.397Z,84.23
2017-05-14T03:14:49.442Z,84.61
2017-05-14T03:16:03.477Z,84.52
2017-05-14T03:17:16.503Z,84.23
2017-05-14T03:18:32.326Z,84.23
2017-05-14T03:19:47.664Z,84.32
2017-05-14T03:21:03.023Z,84.32
2017-05-14T03:22:18.368Z,84.32
2017-05-14T03:23:32.614Z,84.13
2017-05-14T03:24:47.973Z,84.42
2017-05-14T03:26:03.329Z,84.61
2017-05-14T03:27:18.664Z,84.52
2017-05-14T03:28:32.948Z,84.52
2017-05-14T03:29:48.690Z,84.52
2017-05-14T03:31:04.016Z,84.42
2017-05-14T03:32:19.363Z,84.03
2017-05-14T03:33:31.980Z,84.7
2017-05-14T03:34:46.276Z,84.52
2017-05-14T03:36:01.604Z,84.8
2017-05-14T03:37:17.115Z,84.99
2017-05-14T03:38:32.560Z,84.99
2017-05-14T03:39:48.100Z,85.47
2017-05-14T03:41:03.436Z,85.75
2017-05-14T03:42:16.416Z,85.09
2017-05-14T03:43:31.781Z,85.18
2017-05-14T03:44:47.344Z,85.18
2017-05-14T03:46:02.732Z,85.38
2017-05-14T03:47:18.070Z,84.8
2017-05-14T03:48:30.698Z,84.89
2017-05-14T03:49:44.969Z,84.99
2017-05-14T03:50:59.027Z,84.89
2017-05-14T03:52:11.780Z,84.99
2017-05-14T03:53:25.868Z,84.89
2017-05-14T03:54:41.497Z,84.99
2017-05-14T03:55:56.907Z,84.99
2017-05-14T03:57:09.557Z,84.52
2017-05-14T03:58:24.957Z,84.89
2017-05-14T03:59:40.508Z,84.52
2017-05-14T04:00:55.837Z,84.8
2017-05-14T04:02:11.186Z,84.7
2017-05-14T04:03:26.524Z,84.46
2017-05-14T04:04:42.076Z,84.75
2017-05-14T04:05:57.402Z,84.46
2017-05-14T04:07:12.779Z,84.84
2017-05-14T04:08:25.426Z,84.65
2017-05-14T04:09:40.824Z,84.08
2017-05-14T04:10:56.342Z,84.27
2017-05-14T04:12:10.327Z,84.36
2017-05-14T04:13:22.953Z,84.36
2017-05-14T04:14:38.301Z,83.69
2017-05-14T04:15:53.835Z,83.89
2017-05-14T04:17:09.172Z,84.08
2017-05-14T04:18:23.224Z,83.89
2017-05-14T04:19:37.274Z,83.89
2017-05-14T04:20:52.821Z,83.89
2017-05-14T04:22:06.903Z,83.6
2017-05-14T04:23:22.232Z,83.89
2017-05-14T04:24:37.614Z,83.79
2017-05-14T04:25:51.734Z,83.6
2017-05-14T04:27:07.104Z,83.5
2017-05-14T04:28:21.016Z,83.89
2017-05-14T04:29:35.067Z,84.17
2017-05-14T04:30:50.620Z,83.69
2017-05-14T04:32:05.945Z,84.12
2017-05-14T04:33:21.352Z,84.22
2017-05-14T04:34:36.844Z,84.41
2017-05-14T04:35:51.147Z,84.31
2017-05-14T04:37:05.240Z,83.73
2017-05-14T04:38:20.576Z,83.64
2017-05-14T04:39:35.911Z,84.31
2017-05-14T04:40:51.465Z,84.41
2017-05-14T04:42:06.898Z,84.36
2017-05-14T04:43:22.236Z,84.5
2017-05-14T04:44:34.958Z,84.36
2017-05-14T04:45:49.221Z,84.22
2017-05-14T04:47:03.281Z,84.27
2017-05-14T04:48:18.615Z,84.36
2017-05-14T04:49:33.934Z,84.17
2017-05-14T04:50:49.623Z,84.46
2017-05-14T04:52:04.943Z,84.31
2017-05-14T04:53:18.623Z,84.12
2017-05-14T04:54:34.194Z,84.41
2017-05-14T04:55:49.577Z,84.31
2017-05-14T04:57:05.325Z,84.41
2017-05-14T04:58:20.673Z,84.12
2017-05-14T04:59:34.710Z,84.08
2017-05-14T05:00:50.042Z,84.17
2017-05-14T05:02:05.655Z,84.12
2017-05-14T05:03:20.991Z,84.12
2017-05-14T05:04:36.486Z,84.41
2017-05-14T05:05:52.079Z,84.5
2017-05-14T05:07:06.189Z,84.22
2017-05-14T05:08:20.242Z,84.41
2017-05-14T05:09:35.599Z,84.41
2017-05-14T05:10:51.011Z,84.41
2017-05-14T05:12:06.543Z,84.41
2017-05-14T05:13:21.975Z,83.83
2017-05-14T05:14:36.022Z,83.73
2017-05-14T05:15:50.071Z,83.93
2017-05-14T05:17:04.424Z,83.73
2017-05-14T05:18:18.530Z,83.93
2017-05-14T05:19:33.869Z,83.39
2017-05-14T05:20:47.906Z,83.39
2017-05-14T05:22:02.179Z,83.3
2017-05-14T05:23:17.516Z,83.3
2017-05-14T05:24:31.611Z,83.11
2017-05-14T05:25:45.683Z,83.2
2017-05-14T05:27:00.847Z,83.3
2017-05-14T05:28:14.894Z,82.92
2017-05-14T05:29:30.219Z,83.01
2017-05-14T05:30:45.557Z,82.63
2017-05-14T05:31:58.190Z,82.57
2017-05-14T05:33:12.437Z,82.15
2017-05-14T05:34:28.039Z,82.63
2017-05-14T05:35:40.861Z,82.48
2017-05-14T05:36:56.244Z,81.81
2017-05-14T05:38:10.503Z,82.09
2017-05-14T05:39:24.793Z,82.09
2017-05-14T05:40:38.780Z,81.81
2017-05-14T05:41:54.152Z,82.29
2017-05-14T05:43:09.763Z,81.9
2017-05-14T05:44:25.162Z,81.81
2017-05-14T05:45:40.522Z,81.62
2017-05-14T05:46:55.860Z,81.81
2017-05-14T05:48:11.049Z,81.9
2017-05-14T05:49:25.181Z,82
2017-05-14T05:50:39.259Z,82.48
2017-05-14T05:51:53.308Z,82.29
2017-05-14T05:53:08.891Z,82.09
2017-05-14T05:54:21.660Z,82.29
2017-05-14T05:55:35.411Z,82.19
2017-05-14T05:56:50.886Z,82.09
2017-05-14T05:58:04.956Z,82.38
2017-05-14T05:59:20.538Z,83.15
2017-05-14T06:00:34.595Z,82.09
2017-05-14T06:01:48.656Z,83.25
2017-05-14T06:03:04.056Z,82.86
2017-05-14T06:04:19.596Z,82.76
2017-05-14T06:05:32.343Z,82.86
2017-05-14T06:06:47.783Z,82.86
2017-05-14T06:08:03.164Z,82.9
2017-05-14T06:09:18.744Z,82.9
2017-05-14T06:10:34.118Z,82.9
2017-05-14T06:11:48.162Z,83
2017-05-14T06:13:03.531Z,83
2017-05-14T06:14:17.771Z,82.9
2017-05-14T06:15:31.817Z,82.42
2017-05-14T06:16:47.179Z,82.14
2017-05-14T06:18:02.560Z,82.32
2017-05-14T06:19:15.394Z,81.85
2017-05-14T06:20:30.411Z,81.95
2017-05-14T06:21:44.461Z,81.85
2017-05-14T06:22:59.827Z,81.85
2017-05-14T06:24:12.590Z,81.95
2017-05-14T06:25:28.116Z,81.95
2017-05-14T06:26:43.443Z,81.75
2017-05-14T06:27:57.505Z,81.56
2017-05-14T06:29:11.600Z,81.6
2017-05-14T06:30:25.545Z,81.7
2017-05-14T06:31:39.589Z,81.6
2017-05-14T06:32:53.652Z,81.31
2017-05-14T06:34:09.026Z,81.41
2017-05-14T06:35:23.330Z,81.41
2017-05-14T06:36:38.662Z,81.41
2017-05-14T06:37:54.137Z,81.51
2017-05-14T06:39:09.460Z,81.31
2017-05-14T06:40:25.119Z,81.6
2017-05-14T06:41:40.444Z,81.41
2017-05-14T06:42:56.066Z,81.12
2017-05-14T06:44:11.422Z,81.31
2017-05-14T06:45:25.713Z,81.31
2017-05-14T06:46:39.858Z,81.31
2017-05-14T06:47:55.228Z,81.02
2017-05-14T06:49:10.576Z,80.68
2017-05-14T06:50:26.368Z,80.78
2017-05-14T06:51:40.438Z,80.87
2017-05-14T06:52:55.775Z,80.01
2017-05-14T06:54:09.717Z,79.63
2017-05-14T06:55:25.361Z,79.05
2017-05-14T06:56:39.468Z,78.96
2017-05-14T06:57:54.828Z,78.77
2017-05-14T06:59:08.994Z,78.61
2017-05-14T07:00:20.341Z,78.61
2017-05-14T07:01:35.901Z,78.52
2017-05-14T07:02:51.273Z,78.32
2017-05-14T07:04:06.729Z,78.8
2017-05-14T07:05:22.112Z,78.61
2017-05-14T07:06:36.194Z,78.8
2017-05-14T07:07:51.572Z,78.8
2017-05-14T07:09:06.920Z,78.03
2017-05-14T07:10:20.981Z,77.75
2017-05-14T07:11:35.233Z,77.65
2017-05-14T07:12:49.326Z,77.84
2017-05-14T07:14:03.419Z,78.7
2017-05-14T07:15:18.796Z,78.52
2017-05-14T07:16:34.347Z,78.86
2017-05-14T07:17:49.724Z,78.67
2017-05-14T07:19:05.079Z,78.86
2017-05-14T07:20:17.951Z,78.38
2017-05-14T07:21:33.568Z,78.77
2017-05-14T07:22:48.949Z,78.67
2017-05-14T07:24:02.995Z,77.65
2017-05-14T07:25:17.043Z,78.32
2017-05-14T07:26:32.390Z,77.84
2017-05-14T07:27:47.946Z,77.94
2017-05-14T07:29:03.289Z,77.36
2017-05-14T07:30:18.688Z,76.54
2017-05-14T07:31:32.894Z,76.82
2017-05-14T07:32:48.682Z,76.25
2017-05-14T07:34:02.736Z,76.44
2017-05-14T07:35:18.075Z,75.96
2017-05-14T07:36:33.621Z,75.67
2017-05-14T07:37:49.157Z,75.2
2017-05-14T07:39:04.665Z,75.29
2017-05-14T07:40:18.580Z,75.29
2017-05-14T07:41:31.317Z,75.29
2017-05-14T07:42:46.919Z,75.2
2017-05-14T07:44:02.259Z,75
2017-05-14T07:45:17.653Z,74.71
2017-05-14T07:46:33.004Z,75.1
2017-05-14T07:47:48.576Z,74.71
2017-05-14T07:49:02.570Z,74.52
2017-05-14T07:50:18.178Z,74.62
2017-05-14T07:51:33.511Z,74.13
2017-05-14T07:52:47.633Z,74.13
2017-05-14T07:54:03.009Z,74.33
2017-05-14T07:55:17.063Z,74.62
2017-05-14T07:56:31.197Z,74.13
2017-05-14T07:57:46.739Z,74.23
2017-05-14T07:59:00.823Z,74.33
2017-05-14T08:00:16.152Z,74.23
2017-05-14T08:01:31.557Z,73.88
2017-05-14T08:02:47.138Z,74.08
2017-05-14T08:03:59.922Z,73.98
2017-05-14T08:05:15.290Z,73.69
2017-05-14T08:06:30.637Z,73.69
2017-05-14T08:07:43.622Z,73.69
2017-05-14T08:08:57.764Z,73.41
2017-05-14T08:10:13.118Z,72.64
2017-05-14T08:11:28.456Z,72.92
2017-05-14T08:12:44.045Z,72.73
2017-05-14T08:13:58.119Z,72.77
2017-05-14T08:15:13.225Z,72.38
2017-05-14T08:16:27.280Z,72.38
2017-05-14T08:17:41.601Z,72.09
2017-05-14T08:18:57.166Z,71.71
2017-05-14T08:20:12.504Z,71.61
2017-05-14T08:21:26.584Z,72.09
2017-05-14T08:22:40.742Z,72.58
2017-05-14T08:23:56.306Z,72.67
2017-05-14T08:25:10.383Z,72.09
2017-05-14T08:26:24.545Z,72.09
2017-05-14T08:27:39.893Z,72.09
2017-05-14T08:28:55.477Z,71.61
2017-05-14T08:30:10.492Z,71.46
2017-05-14T08:31:25.849Z,71.26
2017-05-14T08:32:41.531Z,71.55
2017-05-14T08:33:57.203Z,70.92
2017-05-14T08:35:12.576Z,70.62
2017-05-14T08:36:26.569Z,69.12
2017-05-14T08:37:41.930Z,68.35
2017-05-14T08:38:57.561Z,67.74
2017-05-14T08:40:11.673Z,66.88
2017-05-14T08:41:27.038Z,64.56
2017-05-14T08:42:42.581Z,64.53
2017-05-14T08:43:58.138Z,62.63
2017-05-14T08:45:13.513Z,62.15
2017-05-14T08:46:28.489Z,61.6
2017-05-14T08:47:44.103Z,61.31
2017-05-14T08:49:00.077Z,60.73
2017-05-14T08:50:14.380Z,59.89
2017-05-14T08:51:29.738Z,59.12
2017-05-14T08:52:45.094Z,58.93
2017-05-14T08:53:59.473Z,59.09
2017-05-14T08:55:15.097Z,58.12
2017-05-14T08:56:30.706Z,58.61
2017-05-14T08:57:46.052Z,59.77
2017-05-14T08:59:01.899Z,59.06
2017-05-14T09:00:15.983Z,59.74
2017-05-14T09:01:30.152Z,60.22
2017-05-14T09:02:45.543Z,60.13
2017-05-14T09:04:01.095Z,59.55
2017-05-14T09:05:14.024Z,59.61
2017-05-14T09:06:28.132Z,60.28
2017-05-14T09:07:43.539Z,59.8
2017-05-14T09:08:59.165Z,59.45
2017-05-14T09:10:13.249Z,59.45
2017-05-14T09:11:28.659Z,59.64
2017-05-14T09:12:44.025Z,59.93
2017-05-14T09:13:59.827Z,59.55
2017-05-14T09:15:15.173Z,59.8
2017-05-14T09:16:30.630Z,60.19
2017-05-14T09:17:45.994Z,60.28
2017-05-14T09:19:00.513Z,60.45
2017-05-14T09:20:15.951Z,60.42
2017-05-14T09:21:31.381Z,60.9
2017-05-14T09:22:45.536Z,61.25
2017-05-14T09:24:00.888Z,61.83
2017-05-14T09:25:16.320Z,62.77
2017-05-14T09:26:31.779Z,63.06
2017-05-14T09:27:47.224Z,63.7
2017-05-14T09:29:02.799Z,63.7
2017-05-14T09:30:18.232Z,64.18
2017-05-14T09:31:32.209Z,65.01
2017-05-14T09:32:47.565Z,64.82
2017-05-14T09:34:00.557Z,65.56
2017-05-14T09:35:15.917Z,66.33
2017-05-14T09:36:29.901Z,67.29
2017-05-14T09:37:44.085Z,67.77
2017-05-14T09:38:59.478Z,67.93
2017-05-14T09:40:15.084Z,68.31
2017-05-14T09:41:29.153Z,68.6
2017-05-14T09:42:44.537Z,68.31
2017-05-14T09:43:59.905Z,68.41
2017-05-14T09:45:15.509Z,68.7
2017-05-14T09:46:29.559Z,69.05
2017-05-14T09:47:44.911Z,70.39
2017-05-14T09:49:00.316Z,70.39
2017-05-14T09:50:14.513Z,70.58
2017-05-14T09:51:29.646Z,72.22
2017-05-14T09:52:44.765Z,72.79
2017-05-14T09:54:00.496Z,72.31
2017-05-14T09:55:16.088Z,73.27
2017-05-14T09:56:30.148Z,73.56
2017-05-14T09:57:44.258Z,73.72
2017-05-14T09:58:59.612Z,74.04
2017-05-14T10:00:13.876Z,74.39
2017-05-14T10:01:28.975Z,76.12
2017-05-14T10:02:42.671Z,76.5
2017-05-14T10:03:58.065Z,76.5
2017-05-14T10:05:13.620Z,76.56
2017-05-14T10:06:27.788Z,77.51
2017-05-14T10:07:41.697Z,77.8
2017-05-14T10:08:57.056Z,78.38
2017-05-14T10:10:12.654Z,79.44
2017-05-14T10:11:28.025Z,79.72
2017-05-14T10:12:43.383Z,79.34
2017-05-14T10:13:56.266Z,79.21
2017-05-14T10:15:11.831Z,79.91
2017-05-14T10:16:27.178Z,80.16
2017-05-14T10:17:42.634Z,80.68
2017-05-14T10:18:56.696Z,80.78
2017-05-14T10:20:12.282Z,80.68
2017-05-14T10:21:27.641Z,81.26
2017-05-14T10:22:41.750Z,81.45
2017-05-14T10:23:55.831Z,80.97
2017-05-14T10:25:11.444Z,80.78
2017-05-14T10:26:25.723Z,81.07
2017-05-14T10:27:37.071Z,80.68
2017-05-14T10:28:51.125Z,80.49
2017-05-14T10:30:06.502Z,81.26
2017-05-14T10:31:22.141Z,82.31
2017-05-14T10:32:37.488Z,81.93
2017-05-14T10:33:52.839Z,81.64
2017-05-14T10:35:05.500Z,82.21
2017-05-14T10:36:21.069Z,81.84
2017-05-14T10:37:35.130Z,82.03
2017-05-14T10:38:48.155Z,82.51
2017-05-14T10:40:03.512Z,82.41
2017-05-14T10:41:19.170Z,82.21
2017-05-14T10:42:34.584Z,82.21
2017-05-14T10:43:49.971Z,82.12
2017-05-14T10:45:04.018Z,82.31
2017-05-14T10:46:19.597Z,82.31
2017-05-14T10:47:33.729Z,82.31
2017-05-14T10:48:47.730Z,81.74
2017-05-14T10:50:03.084Z,82.21
2017-05-14T10:51:18.437Z,81.74
2017-05-14T10:52:32.743Z,81.35
2017-05-14T10:53:48.205Z,81.84
2017-05-14T10:55:01.144Z,81.84
2017-05-14T10:56:15.226Z,81.84
2017-05-14T10:57:30.810Z,81.84
2017-05-14T10:58:46.212Z,82.41
2017-05-14T11:00:00.312Z,81.84
2017-05-14T11:01:15.669Z,82.03
2017-05-14T11:02:30.094Z,81.64
2017-05-14T11:03:45.445Z,81.35
2017-05-14T11:04:58.455Z,81.93
2017-05-14T11:06:13.877Z,82.03
2017-05-14T11:07:29.423Z,82.03
2017-05-14T11:08:43.515Z,82.03
2017-05-14T11:09:59.132Z,81.93
2017-05-14T11:11:13.291Z,81.84
2017-05-14T11:12:28.833Z,82.21
2017-05-14T11:13:42.909Z,81.93
2017-05-14T11:14:58.284Z,82.6
2017-05-14T11:16:12.647Z,82.7
2017-05-14T11:17:28.349Z,83.08
2017-05-14T11:18:43.707Z,82.21
2017-05-14T11:19:59.131Z,81.74
2017-05-14T11:21:14.485Z,82.12
2017-05-14T11:22:27.134Z,81.45
2017-05-14T11:23:42.766Z,81.84
2017-05-14T11:24:58.127Z,81.35
2017-05-14T11:26:12.298Z,81.45
2017-05-14T11:27:27.950Z,81.45
2017-05-14T11:28:43.864Z,81.26
2017-05-14T11:29:59.217Z,81.35
2017-05-14T11:31:13.319Z,81.54
2017-05-14T11:32:28.731Z,81.64
2017-05-14T11:33:44.318Z,81.74
2017-05-14T11:34:59.686Z,81.35
2017-05-14T11:36:15.057Z,81.45
2017-05-14T11:37:30.397Z,80.87
2017-05-14T11:38:46.055Z,81.26
2017-05-14T11:40:01.443Z,80.78
2017-05-14T11:41:16.796Z,80.68
2017-05-14T11:42:30.734Z,81.07
2017-05-14T11:43:46.581Z,79.82
2017-05-14T11:45:01.967Z,79.53
2017-05-14T11:46:17.394Z,80.01
2017-05-14T11:47:32.775Z,80.3
2017-05-14T11:48:47.123Z,80.87
2017-05-14T11:50:01.188Z,80.87
2017-05-14T11:51:13.982Z,80.24
2017-05-14T11:52:29.684Z,79.67
2017-05-14T11:53:45.290Z,78.7
2017-05-14T11:55:00.690Z,77.46
2017-05-14T11:56:16.118Z,77.69
2017-05-14T11:57:31.719Z,77.4
2017-05-14T11:58:46.079Z,75.29
2017-05-14T12:00:01.482Z,74.52
2017-05-14T12:01:15.589Z,74.27
2017-05-14T12:02:30.959Z,73.6
2017-05-14T12:03:46.605Z,73.21
2017-05-14T12:05:01.998Z,72.92
2017-05-14T12:06:17.381Z,72.86
2017-05-14T12:07:32.776Z,72.48
2017-05-14T12:08:48.726Z,72.19
2017-05-14T12:10:02.843Z,72.19
2017-05-14T12:11:18.455Z,72.38
2017-05-14T12:12:33.790Z,72.8
2017-05-14T12:13:49.384Z,72.23
2017-05-14T12:15:05.224Z,71.55
2017-05-14T12:16:17.904Z,71.17
2017-05-14T12:17:33.247Z,71.75
2017-05-14T12:18:48.781Z,71.55
2017-05-14T12:20:04.155Z,71.36
2017-05-14T12:21:19.538Z,71.36
2017-05-14T12:22:34.899Z,71.36
2017-05-14T12:23:48.851Z,71.2
2017-05-14T12:25:04.237Z,70.92
2017-05-14T12:26:19.682Z,69.79
2017-05-14T12:27:39.599Z,69.7
2017-05-14T12:30:15.836Z,70.21
2017-05-14T12:31:39.984Z,66.39
2017-05-14T12:33:33.935Z,66.88
2017-05-14T12:34:55.719Z,66.01
2017-05-14T12:43:54.780Z,64.98
2017-05-14T12:45:10.200Z,64.69
2017-05-14T12:46:25.606Z,64.11
2017-05-14T12:47:40.975Z,63.73
2017-05-14T12:48:56.546Z,64.59
2017-05-14T12:50:10.655Z,64.21
2017-05-14T12:51:24.804Z,64.21
2017-05-14T12:52:40.236Z,63.73
2017-05-14T12:53:55.503Z,64.21
2017-05-14T12:55:11.114Z,64.4
2017-05-14T12:56:26.485Z,64.69
2017-05-14T12:57:40.273Z,63.82
2017-05-14T12:58:55.665Z,63.82
2017-05-14T13:00:11.295Z,63.79
2017-05-14T13:01:26.666Z,64.08
2017-05-14T13:02:42.192Z,64.37
2017-05-14T13:03:57.608Z,63.89
2017-05-14T13:05:13.264Z,64.56
2017-05-14T13:06:28.658Z,65.14
2017-05-14T13:07:42.633Z,64.66
2017-05-14T13:08:56.745Z,64.56
2017-05-14T13:10:12.396Z,64.66
2017-05-14T13:11:27.812Z,65.05
2017-05-14T13:12:41.881Z,65.14
2017-05-14T13:13:57.299Z,64.66
2017-05-14T13:15:12.921Z,64.95
2017-05-14T13:16:25.576Z,64.56
2017-05-14T13:17:39.532Z,65.05
2017-05-14T13:18:55.051Z,64.18
2017-05-14T13:20:10.671Z,63.5
2017-05-14T13:21:26.062Z,63.7
2017-05-14T13:22:41.427Z,64.18
2017-05-14T13:23:56.438Z,62.76
2017-05-14T13:25:12.289Z,62.45
2017-05-14T13:26:27.691Z,63.15
2017-05-14T13:27:41.666Z,62.09
2017-05-14T13:28:57.030Z,61.9
2017-05-14T13:30:12.638Z,61.9
2017-05-14T13:31:28.026Z,62.57
2017-05-14T13:32:43.087Z,60.19
2017-05-14T13:33:58.472Z,60.28
2017-05-14T13:35:12.880Z,60.86
2017-05-14T13:36:28.292Z,61.35
2017-05-14T13:37:43.793Z,61.54
2017-05-14T13:38:57.919Z,61.25
2017-05-14T13:40:13.552Z,61.25
2017-05-14T13:41:28.920Z,61.44
2017-05-14T13:42:44.206Z,61.41
2017-05-14T13:43:59.591Z,61.61
2017-05-14T13:45:14.196Z,61.9
2017-05-14T13:46:29.257Z,61.51
2017-05-14T13:47:44.643Z,60.83
2017-05-14T13:49:29.446Z,59.97
2017-05-14T13:50:45.024Z,58.91
2017-05-14T13:52:00.443Z,59.1
2017-05-14T13:53:15.858Z,59.58
2017-05-14T13:54:31.500Z,60.35
2017-05-14T13:55:45.867Z,59.58
2017-05-14T13:57:01.318Z,59.78
2017-05-14T13:58:16.683Z,59.8
2017-05-14T13:59:30.817Z,60.19
2017-05-14T14:00:46.443Z,59.71
2017-05-14T14:02:00.638Z,60.48
2017-05-14T14:03:15.046Z,60.38
2017-05-14T14:04:30.528Z,60.19
2017-05-14T14:05:46.250Z,60.48
2017-05-14T14:07:01.650Z,59.8
2017-05-14T14:08:17.054Z,59.9
2017-05-14T14:09:32.428Z,59.52
2017-05-14T14:10:48.018Z,59.9
2017-05-14T14:12:03.410Z,58.97
2017-05-14T14:13:18.782Z,58.58
2017-05-14T14:14:34.247Z,57.14
2017-05-14T14:15:48.556Z,56.56
2017-05-14T14:17:03.716Z,56.56
2017-05-14T14:18:20.469Z,56.94
2017-05-14T14:19:37.637Z,57.52
2017-05-14T14:20:52.801Z,56.84
2017-05-14T14:22:08.886Z,56.94
2017-05-14T14:23:26.422Z,57.62
2017-05-14T14:24:43.720Z,56.81
2017-05-14T14:26:00.134Z,56.62
2017-05-14T14:27:17.005Z,56.91
2017-05-14T14:28:34.044Z,57.29
2017-05-14T14:29:49.356Z,56.91
2017-05-14T14:31:06.470Z,57.1
2017-05-14T14:32:23.448Z,57.2
2017-05-14T14:33:38.607Z,57.56
2017-05-14T14:34:55.002Z,57.59
2017-05-14T14:36:11.295Z,57.68
2017-05-14T14:37:28.818Z,57.29
2017-05-14T14:38:46.145Z,56.91
2017-05-14T14:40:34.382Z,57.2
2017-05-14T14:41:49.447Z,56.91
2017-05-14T14:43:06.034Z,55.94
2017-05-14T14:44:22.761Z,55.66
2017-05-14T14:45:38.151Z,55.85
2017-05-14T14:46:53.796Z,55.76
2017-05-14T14:48:09.198Z,56.52
2017-05-14T14:49:24.567Z,56.52
2017-05-14T14:50:38.679Z,56.33
2017-05-14T14:51:54.650Z,57.1
2017-05-14T14:53:10.339Z,57.78
2017-05-14T14:54:25.780Z,57.68
2017-05-14T14:55:39.892Z,58.45
2017-05-14T14:56:54.286Z,58.07
2017-05-14T14:58:08.331Z,58.07
2017-05-14T14:59:21.123Z,57.87
2017-05-14T15:00:36.783Z,58.17
2017-05-14T15:01:52.207Z,58.62
2017-05-14T15:03:08.205Z,58.91
2017-05-14T15:04:23.627Z,58.52
2017-05-14T15:05:39.015Z,57.46
2017-05-14T15:06:54.480Z,57.27
2017-05-14T15:08:09.940Z,58.23
2017-05-14T15:09:24.113Z,58.42
2017-05-14T15:10:39.752Z,58.42
2017-05-14T15:11:55.233Z,58.04
2017-05-14T15:13:10.945Z,57.01
2017-05-14T15:14:26.447Z,57.01
2017-05-14T15:15:40.634Z,56.79
2017-05-14T15:16:56.277Z,56.98
2017-05-14T15:18:11.895Z,57.65
2017-05-14T15:19:27.319Z,57.56
2017-05-14T15:20:41.678Z,57.75
2017-05-14T15:21:57.259Z,56.98
2017-05-14T15:23:12.818Z,57.37
2017-05-14T15:24:28.199Z,56.79
2017-05-14T15:25:43.583Z,56.85
2017-05-14T15:26:58.622Z,57.05
2017-05-14T15:28:12.803Z,57.05
2017-05-14T15:29:28.293Z,56.79
2017-05-14T15:30:43.664Z,56.47
2017-05-14T15:31:57.607Z,56.76
2017-05-14T15:33:44.112Z,57.27
2017-05-14T15:34:59.591Z,57.75
2017-05-14T15:36:14.977Z,57.56
2017-05-14T15:37:30.684Z,57.27
2017-05-14T15:38:44.797Z,56.88
2017-05-14T15:40:00.235Z,55.82
2017-05-14T15:41:15.600Z,55.76
2017-05-14T15:42:31.179Z,55.66
2017-05-14T15:43:46.702Z,55.56
2017-05-14T15:45:00.835Z,55.66
2017-05-14T15:46:14.936Z,55.08
2017-05-14T15:47:30.563Z,54.69
2017-05-14T15:48:46.010Z,54.4
2017-05-14T15:50:01.376Z,54.79
2017-05-14T15:51:15.485Z,54.98
2017-05-14T15:52:31.070Z,53.63
2017-05-14T15:53:46.514Z,52.86
2017-05-14T15:55:01.921Z,52.37
2017-05-14T15:56:17.432Z,52.67
2017-05-14T15:57:31.583Z,52.09
2017-05-14T15:58:45.818Z,50.45
2017-05-14T16:00:01.302Z,50.35
2017-05-14T16:01:13.949Z,50.86
2017-05-14T16:02:29.369Z,51.34
2017-05-14T16:03:45.671Z,51.92
2017-05-14T16:04:59.663Z,51.92
2017-05-14T16:06:15.026Z,51.73
2017-05-14T16:07:30.660Z,52.43
2017-05-14T16:08:46.403Z,51.85
2017-05-14T16:10:01.810Z,51.75
2017-05-14T16:11:17.220Z,51.17
2017-05-14T16:12:32.628Z,50.89
2017-05-14T16:13:48.226Z,51.17
2017-05-14T16:15:03.595Z,51.46
2017-05-14T16:16:18.999Z,51.17
2017-05-14T16:17:34.607Z,51.17
2017-05-14T16:18:49.228Z,51.25
2017-05-14T16:20:04.850Z,51.73